sensor_id;sensor_type;location;lat;lon;timestamp;P1;durP1;ratioP1;P2;durP2;ratioP2
49678;SDS011;35570;48.218;16.326;2023-05-10T00:02:24;3.63;;;2.25;;
49678;SDS011;35570;48.218;16.326;2023-05-10T00:04:50;4.07;;;2.78;;
49678;SDS011;35570;48.218;16.326;2023-05-10T00:07:16;2.88;;;2.58;;
49678;SDS011;35570;48.218;16.326;2023-05-10T00:09:44;3.72;;;1.92;;
49678;SDS011;35570;48.218;16.326;2023-05-10T00:12:10;5.68;;;2.50;;
49678;SDS011;35570;48.218;16.326;2023-05-10T00:14:35;3.28;;;2.10;;
49678;SDS011;35570;48.218;16.326;2023-05-10T00:17:01;3.88;;;2.30;;
49678;SDS011;35570;48.218;16.326;2023-05-10T00:19:26;3.90;;;2.40;;
49678;SDS011;35570;48.218;16.326;2023-05-10T00:21:52;3.40;;;2.42;;
49678;SDS011;35570;48.218;16.326;2023-05-10T00:24:18;4.78;;;2.22;;
49678;SDS011;35570;48.218;16.326;2023-05-10T00:26:43;5.53;;;2.70;;
49678;SDS011;35570;48.218;16.326;2023-05-10T00:29:09;4.78;;;2.78;;
49678;SDS011;35570;48.218;16.326;2023-05-10T00:31:35;3.08;;;2.58;;
49678;SDS011;35570;48.218;16.326;2023-05-10T00:34:00;5.35;;;3.10;;
49678;SDS011;35570;48.218;16.326;2023-05-10T00:36:26;3.03;;;2.33;;
49678;SDS011;35570;48.218;16.326;2023-05-10T00:38:52;3.90;;;2.72;;
49678;SDS011;35570;48.218;16.326;2023-05-10T00:41:18;7.72;;;2.83;;
49678;SDS011;35570;48.218;16.326;2023-05-10T00:43:46;4.32;;;2.85;;
49678;SDS011;35570;48.218;16.326;2023-05-10T00:46:11;3.15;;;2.47;;
49678;SDS011;35570;48.218;16.326;2023-05-10T00:48:38;2.90;;;2.35;;
49678;SDS011;35570;48.218;16.326;2023-05-10T00:51:04;2.42;;;2.22;;
49678;SDS011;35570;48.218;16.326;2023-05-10T00:53:37;4.28;;;2.53;;
49678;SDS011;35570;48.218;16.326;2023-05-10T00:56:03;4.30;;;2.30;;
49678;SDS011;35570;48.218;16.326;2023-05-10T00:58:28;4.18;;;2.50;;
49678;SDS011;35570;48.218;16.326;2023-05-10T01:00:55;3.47;;;2.38;;
49678;SDS011;35570;48.218;16.326;2023-05-10T01:03:22;5.72;;;2.60;;
49678;SDS011;35570;48.218;16.326;2023-05-10T01:05:50;5.35;;;2.83;;
49678;SDS011;35570;48.218;16.326;2023-05-10T01:08:16;6.60;;;2.50;;
49678;SDS011;35570;48.218;16.326;2023-05-10T01:10:42;5.43;;;2.60;;
49678;SDS011;35570;48.218;16.326;2023-05-10T01:13:09;4.50;;;3.05;;
49678;SDS011;35570;48.218;16.326;2023-05-10T01:15:36;3.72;;;2.70;;
49678;SDS011;35570;48.218;16.326;2023-05-10T01:18:02;4.03;;;2.30;;
49678;SDS011;35570;48.218;16.326;2023-05-10T01:20:32;3.78;;;2.60;;
49678;SDS011;35570;48.218;16.326;2023-05-10T01:23:10;3.83;;;2.47;;
49678;SDS011;35570;48.218;16.326;2023-05-10T01:31:03;6.45;;;3.10;;
49678;SDS011;35570;48.218;16.326;2023-05-10T01:38:53;4.10;;;2.60;;
49678;SDS011;35570;48.218;16.326;2023-05-10T01:44:34;4.45;;;2.67;;
49678;SDS011;35570;48.218;16.326;2023-05-10T01:47:07;6.18;;;2.85;;
49678;SDS011;35570;48.218;16.326;2023-05-10T01:49:39;4.55;;;2.90;;
49678;SDS011;35570;48.218;16.326;2023-05-10T01:52:18;4.13;;;2.47;;
49678;SDS011;35570;48.218;16.326;2023-05-10T01:54:53;7.80;;;2.95;;
49678;SDS011;35570;48.218;16.326;2023-05-10T01:57:25;4.88;;;2.78;;
49678;SDS011;35570;48.218;16.326;2023-05-10T01:59:57;4.97;;;2.97;;
49678;SDS011;35570;48.218;16.326;2023-05-10T02:02:24;3.65;;;2.72;;
49678;SDS011;35570;48.218;16.326;2023-05-10T02:04:52;4.47;;;3.22;;
49678;SDS011;35570;48.218;16.326;2023-05-10T02:07:20;3.38;;;2.83;;
49678;SDS011;35570;48.218;16.326;2023-05-10T02:09:48;3.47;;;3.17;;
49678;SDS011;35570;48.218;16.326;2023-05-10T02:12:15;3.58;;;2.85;;
49678;SDS011;35570;48.218;16.326;2023-05-10T02:14:41;4.10;;;3.05;;
49678;SDS011;35570;48.218;16.326;2023-05-10T02:17:08;3.55;;;2.70;;
49678;SDS011;35570;48.218;16.326;2023-05-10T02:19:36;4.90;;;2.85;;
49678;SDS011;35570;48.218;16.326;2023-05-10T02:22:05;3.92;;;2.95;;
49678;SDS011;35570;48.218;16.326;2023-05-10T02:24:33;5.57;;;3.35;;
49678;SDS011;35570;48.218;16.326;2023-05-10T02:27:01;3.40;;;2.80;;
49678;SDS011;35570;48.218;16.326;2023-05-10T02:29:29;5.38;;;2.60;;
49678;SDS011;35570;48.218;16.326;2023-05-10T02:31:56;5.20;;;2.60;;
49678;SDS011;35570;48.218;16.326;2023-05-10T02:34:23;6.32;;;2.70;;
49678;SDS011;35570;48.218;16.326;2023-05-10T02:36:51;5.03;;;3.20;;
49678;SDS011;35570;48.218;16.326;2023-05-10T02:39:18;7.25;;;3.28;;
49678;SDS011;35570;48.218;16.326;2023-05-10T02:41:45;7.07;;;3.22;;
49678;SDS011;35570;48.218;16.326;2023-05-10T02:44:14;9.43;;;3.22;;
49678;SDS011;35570;48.218;16.326;2023-05-10T02:46:42;3.53;;;3.10;;
49678;SDS011;35570;48.218;16.326;2023-05-10T02:49:08;4.00;;;3.20;;
49678;SDS011;35570;48.218;16.326;2023-05-10T02:51:34;3.15;;;2.85;;
49678;SDS011;35570;48.218;16.326;2023-05-10T02:54:04;3.42;;;2.45;;
49678;SDS011;35570;48.218;16.326;2023-05-10T02:56:36;4.43;;;2.90;;
49678;SDS011;35570;48.218;16.326;2023-05-10T02:59:06;5.88;;;3.05;;
49678;SDS011;35570;48.218;16.326;2023-05-10T03:01:31;4.35;;;3.40;;
49678;SDS011;35570;48.218;16.326;2023-05-10T03:03:57;5.65;;;2.85;;
49678;SDS011;35570;48.218;16.326;2023-05-10T03:06:23;5.65;;;3.10;;
49678;SDS011;35570;48.218;16.326;2023-05-10T03:08:48;6.50;;;3.03;;
49678;SDS011;35570;48.218;16.326;2023-05-10T03:11:28;4.38;;;2.85;;
49678;SDS011;35570;48.218;16.326;2023-05-10T03:14:01;3.72;;;2.90;;
49678;SDS011;35570;48.218;16.326;2023-05-10T03:16:43;4.88;;;3.17;;
49678;SDS011;35570;48.218;16.326;2023-05-10T03:19:30;4.90;;;3.45;;
49678;SDS011;35570;48.218;16.326;2023-05-10T03:22:03;4.45;;;3.17;;
49678;SDS011;35570;48.218;16.326;2023-05-10T03:24:34;5.57;;;3.00;;
49678;SDS011;35570;48.218;16.326;2023-05-10T03:27:01;4.72;;;3.05;;
49678;SDS011;35570;48.218;16.326;2023-05-10T03:29:29;3.58;;;2.95;;
49678;SDS011;35570;48.218;16.326;2023-05-10T03:31:57;6.97;;;3.70;;
49678;SDS011;35570;48.218;16.326;2023-05-10T03:34:24;3.80;;;3.40;;
49678;SDS011;35570;48.218;16.326;2023-05-10T03:36:50;5.88;;;3.00;;
49678;SDS011;35570;48.218;16.326;2023-05-10T03:39:16;5.80;;;3.67;;
49678;SDS011;35570;48.218;16.326;2023-05-10T03:41:41;3.65;;;2.92;;
49678;SDS011;35570;48.218;16.326;2023-05-10T03:44:14;5.30;;;3.55;;
49678;SDS011;35570;48.218;16.326;2023-05-10T03:46:40;3.67;;;3.00;;
49678;SDS011;35570;48.218;16.326;2023-05-10T03:49:05;6.03;;;3.15;;
49678;SDS011;35570;48.218;16.326;2023-05-10T03:51:34;5.18;;;3.17;;
49678;SDS011;35570;48.218;16.326;2023-05-10T03:54:00;5.85;;;3.17;;
49678;SDS011;35570;48.218;16.326;2023-05-10T03:56:26;5.22;;;3.40;;
49678;SDS011;35570;48.218;16.326;2023-05-10T03:58:51;6.30;;;3.47;;
49678;SDS011;35570;48.218;16.326;2023-05-10T04:01:17;3.95;;;3.05;;
49678;SDS011;35570;48.218;16.326;2023-05-10T04:03:42;5.57;;;3.47;;
49678;SDS011;35570;48.218;16.326;2023-05-10T04:06:08;5.82;;;3.47;;
49678;SDS011;35570;48.218;16.326;2023-05-10T04:08:36;5.90;;;3.20;;
49678;SDS011;35570;48.218;16.326;2023-05-10T04:11:20;4.53;;;3.20;;
49678;SDS011;35570;48.218;16.326;2023-05-10T04:13:48;4.55;;;3.28;;
49678;SDS011;35570;48.218;16.326;2023-05-10T04:16:13;6.80;;;3.70;;
49678;SDS011;35570;48.218;16.326;2023-05-10T04:18:39;7.15;;;3.90;;
49678;SDS011;35570;48.218;16.326;2023-05-10T04:21:10;5.57;;;3.90;;
49678;SDS011;35570;48.218;16.326;2023-05-10T04:23:37;4.80;;;3.60;;
49678;SDS011;35570;48.218;16.326;2023-05-10T04:26:03;6.47;;;3.70;;
49678;SDS011;35570;48.218;16.326;2023-05-10T04:28:29;5.22;;;3.50;;
49678;SDS011;35570;48.218;16.326;2023-05-10T04:31:01;6.20;;;3.72;;
49678;SDS011;35570;48.218;16.326;2023-05-10T04:33:30;5.35;;;3.35;;
49678;SDS011;35570;48.218;16.326;2023-05-10T04:35:56;4.90;;;3.40;;
49678;SDS011;35570;48.218;16.326;2023-05-10T04:38:22;4.45;;;3.58;;
49678;SDS011;35570;48.218;16.326;2023-05-10T04:40:47;6.00;;;3.80;;
49678;SDS011;35570;48.218;16.326;2023-05-10T04:43:13;5.63;;;3.67;;
49678;SDS011;35570;48.218;16.326;2023-05-10T04:45:39;5.40;;;3.85;;
49678;SDS011;35570;48.218;16.326;2023-05-10T04:48:04;8.13;;;3.50;;
49678;SDS011;35570;48.218;16.326;2023-05-10T04:50:32;6.20;;;3.78;;
49678;SDS011;35570;48.218;16.326;2023-05-10T04:53:03;5.47;;;3.85;;
49678;SDS011;35570;48.218;16.326;2023-05-10T04:55:29;6.15;;;4.00;;
49678;SDS011;35570;48.218;16.326;2023-05-10T04:57:55;5.25;;;3.80;;
49678;SDS011;35570;48.218;16.326;2023-05-10T05:00:22;7.65;;;4.05;;
49678;SDS011;35570;48.218;16.326;2023-05-10T05:02:48;5.57;;;4.20;;
49678;SDS011;35570;48.218;16.326;2023-05-10T05:05:13;6.45;;;4.07;;
49678;SDS011;35570;48.218;16.326;2023-05-10T05:07:39;5.32;;;3.83;;
49678;SDS011;35570;48.218;16.326;2023-05-10T05:10:08;6.95;;;4.10;;
49678;SDS011;35570;48.218;16.326;2023-05-10T05:12:34;4.88;;;4.07;;
49678;SDS011;35570;48.218;16.326;2023-05-10T05:15:00;6.30;;;3.92;;
49678;SDS011;35570;48.218;16.326;2023-05-10T05:17:26;4.65;;;3.60;;
49678;SDS011;35570;48.218;16.326;2023-05-10T05:19:52;6.65;;;4.28;;
49678;SDS011;35570;48.218;16.326;2023-05-10T05:22:18;5.35;;;3.72;;
49678;SDS011;35570;48.218;16.326;2023-05-10T05:24:44;7.50;;;3.97;;
49678;SDS011;35570;48.218;16.326;2023-05-10T05:27:10;6.32;;;3.80;;
49678;SDS011;35570;48.218;16.326;2023-05-10T05:29:36;7.32;;;3.92;;
49678;SDS011;35570;48.218;16.326;2023-05-10T05:32:01;6.13;;;4.20;;
49678;SDS011;35570;48.218;16.326;2023-05-10T05:34:27;5.72;;;3.92;;
49678;SDS011;35570;48.218;16.326;2023-05-10T05:36:53;7.65;;;4.00;;
49678;SDS011;35570;48.218;16.326;2023-05-10T05:39:19;5.18;;;4.00;;
49678;SDS011;35570;48.218;16.326;2023-05-10T05:41:44;6.38;;;3.97;;
49678;SDS011;35570;48.218;16.326;2023-05-10T05:44:18;6.55;;;4.25;;
49678;SDS011;35570;48.218;16.326;2023-05-10T05:46:44;7.50;;;4.07;;
49678;SDS011;35570;48.218;16.326;2023-05-10T05:49:09;9.93;;;4.40;;
49678;SDS011;35570;48.218;16.326;2023-05-10T05:51:35;5.75;;;3.90;;
49678;SDS011;35570;48.218;16.326;2023-05-10T05:54:01;5.25;;;4.00;;
49678;SDS011;35570;48.218;16.326;2023-05-10T05:56:28;6.32;;;4.13;;
49678;SDS011;35570;48.218;16.326;2023-05-10T05:58:54;6.60;;;4.25;;
49678;SDS011;35570;48.218;16.326;2023-05-10T06:01:20;7.78;;;4.40;;
49678;SDS011;35570;48.218;16.326;2023-05-10T06:03:46;4.93;;;3.53;;
49678;SDS011;35570;48.218;16.326;2023-05-10T06:06:11;6.97;;;3.92;;
49678;SDS011;35570;48.218;16.326;2023-05-10T06:08:37;5.72;;;3.85;;
49678;SDS011;35570;48.218;16.326;2023-05-10T06:11:03;4.80;;;3.20;;
49678;SDS011;35570;48.218;16.326;2023-05-10T06:13:29;8.60;;;3.80;;
49678;SDS011;35570;48.218;16.326;2023-05-10T06:15:57;6.47;;;3.60;;
49678;SDS011;35570;48.218;16.326;2023-05-10T06:18:23;9.45;;;4.60;;
49678;SDS011;35570;48.218;16.326;2023-05-10T06:20:49;5.72;;;3.78;;
49678;SDS011;35570;48.218;16.326;2023-05-10T06:23:15;5.82;;;3.42;;
49678;SDS011;35570;48.218;16.326;2023-05-10T06:25:41;9.07;;;3.78;;
49678;SDS011;35570;48.218;16.326;2023-05-10T06:28:06;5.40;;;4.28;;
49678;SDS011;35570;48.218;16.326;2023-05-10T06:30:32;5.68;;;3.55;;
49678;SDS011;35570;48.218;16.326;2023-05-10T06:32:58;6.22;;;3.70;;
49678;SDS011;35570;48.218;16.326;2023-05-10T06:35:23;7.63;;;4.10;;
49678;SDS011;35570;48.218;16.326;2023-05-10T06:37:49;6.32;;;3.92;;
49678;SDS011;35570;48.218;16.326;2023-05-10T06:40:15;11.15;;;3.97;;
49678;SDS011;35570;48.218;16.326;2023-05-10T06:42:41;6.88;;;4.20;;
49678;SDS011;35570;48.218;16.326;2023-05-10T06:45:07;6.07;;;4.00;;
49678;SDS011;35570;48.218;16.326;2023-05-10T06:47:34;6.43;;;3.90;;
49678;SDS011;35570;48.218;16.326;2023-05-10T06:49:59;6.43;;;3.30;;
49678;SDS011;35570;48.218;16.326;2023-05-10T06:52:25;5.40;;;3.88;;
49678;SDS011;35570;48.218;16.326;2023-05-10T06:54:51;6.70;;;3.78;;
49678;SDS011;35570;48.218;16.326;2023-05-10T06:57:16;5.72;;;4.07;;
49678;SDS011;35570;48.218;16.326;2023-05-10T06:59:43;11.60;;;3.95;;
49678;SDS011;35570;48.218;16.326;2023-05-10T07:02:09;6.50;;;3.90;;
49678;SDS011;35570;48.218;16.326;2023-05-10T07:04:35;6.60;;;3.97;;
49678;SDS011;35570;48.218;16.326;2023-05-10T07:07:01;4.45;;;3.50;;
49678;SDS011;35570;48.218;16.326;2023-05-10T07:09:26;6.93;;;3.63;;
49678;SDS011;35570;48.218;16.326;2023-05-10T07:11:52;6.00;;;3.90;;
49678;SDS011;35570;48.218;16.326;2023-05-10T07:14:17;7.38;;;4.05;;
49678;SDS011;35570;48.218;16.326;2023-05-10T07:16:43;6.18;;;3.45;;
49678;SDS011;35570;48.218;16.326;2023-05-10T07:19:09;6.38;;;3.83;;
49678;SDS011;35570;48.218;16.326;2023-05-10T07:21:35;5.57;;;3.50;;
49678;SDS011;35570;48.218;16.326;2023-05-10T07:24:02;5.60;;;3.50;;
49678;SDS011;35570;48.218;16.326;2023-05-10T07:26:28;5.32;;;3.35;;
49678;SDS011;35570;48.218;16.326;2023-05-10T07:28:53;5.68;;;3.40;;
49678;SDS011;35570;48.218;16.326;2023-05-10T07:31:19;3.97;;;3.40;;
49678;SDS011;35570;48.218;16.326;2023-05-10T07:33:45;5.22;;;3.13;;
49678;SDS011;35570;48.218;16.326;2023-05-10T07:36:11;4.80;;;3.38;;
49678;SDS011;35570;48.218;16.326;2023-05-10T07:38:36;6.57;;;3.53;;
49678;SDS011;35570;48.218;16.326;2023-05-10T07:41:02;6.35;;;3.15;;
49678;SDS011;35570;48.218;16.326;2023-05-10T07:43:28;7.30;;;3.38;;
49678;SDS011;35570;48.218;16.326;2023-05-10T07:45:53;9.68;;;3.78;;
49678;SDS011;35570;48.218;16.326;2023-05-10T07:48:19;5.10;;;3.50;;
49678;SDS011;35570;48.218;16.326;2023-05-10T07:50:44;7.95;;;3.88;;
49678;SDS011;35570;48.218;16.326;2023-05-10T07:53:10;8.15;;;3.40;;
49678;SDS011;35570;48.218;16.326;2023-05-10T07:55:35;5.22;;;3.40;;
49678;SDS011;35570;48.218;16.326;2023-05-10T07:58:01;7.18;;;2.88;;
49678;SDS011;35570;48.218;16.326;2023-05-10T08:00:27;7.82;;;3.42;;
49678;SDS011;35570;48.218;16.326;2023-05-10T08:02:53;7.32;;;3.35;;
49678;SDS011;35570;48.218;16.326;2023-05-10T08:05:18;10.13;;;3.35;;
49678;SDS011;35570;48.218;16.326;2023-05-10T08:07:44;7.10;;;3.67;;
49678;SDS011;35570;48.218;16.326;2023-05-10T08:10:09;6.43;;;3.70;;
49678;SDS011;35570;48.218;16.326;2023-05-10T08:12:38;10.15;;;3.67;;
49678;SDS011;35570;48.218;16.326;2023-05-10T08:15:04;7.75;;;4.35;;
49678;SDS011;35570;48.218;16.326;2023-05-10T08:17:30;7.70;;;4.50;;
49678;SDS011;35570;48.218;16.326;2023-05-10T08:19:55;6.70;;;5.75;;
49678;SDS011;35570;48.218;16.326;2023-05-10T08:22:21;9.88;;;6.10;;
49678;SDS011;35570;48.218;16.326;2023-05-10T08:24:47;7.68;;;4.47;;
49678;SDS011;35570;48.218;16.326;2023-05-10T08:27:12;7.88;;;4.20;;
49678;SDS011;35570;48.218;16.326;2023-05-10T08:29:38;4.15;;;3.22;;
49678;SDS011;35570;48.218;16.326;2023-05-10T08:32:04;11.82;;;7.45;;
49678;SDS011;35570;48.218;16.326;2023-05-10T08:34:29;5.70;;;3.75;;
49678;SDS011;35570;48.218;16.326;2023-05-10T08:36:56;6.72;;;3.60;;
49678;SDS011;35570;48.218;16.326;2023-05-10T08:39:21;6.18;;;3.55;;
49678;SDS011;35570;48.218;16.326;2023-05-10T08:41:48;5.50;;;3.25;;
49678;SDS011;35570;48.218;16.326;2023-05-10T08:44:20;8.32;;;3.40;;
49678;SDS011;35570;48.218;16.326;2023-05-10T08:46:46;4.82;;;2.63;;
49678;SDS011;35570;48.218;16.326;2023-05-10T08:49:19;6.65;;;3.50;;
49678;SDS011;35570;48.218;16.326;2023-05-10T08:51:50;6.97;;;2.78;;
49678;SDS011;35570;48.218;16.326;2023-05-10T08:54:19;7.88;;;3.10;;
49678;SDS011;35570;48.218;16.326;2023-05-10T08:56:44;5.50;;;3.28;;
49678;SDS011;35570;48.218;16.326;2023-05-10T08:59:10;6.15;;;2.97;;
49678;SDS011;35570;48.218;16.326;2023-05-10T09:01:38;5.60;;;2.72;;
49678;SDS011;35570;48.218;16.326;2023-05-10T09:04:04;5.75;;;2.92;;
49678;SDS011;35570;48.218;16.326;2023-05-10T09:06:29;7.50;;;3.08;;
49678;SDS011;35570;48.218;16.326;2023-05-10T09:08:55;4.30;;;2.75;;
49678;SDS011;35570;48.218;16.326;2023-05-10T09:11:21;6.60;;;2.92;;
49678;SDS011;35570;48.218;16.326;2023-05-10T09:13:47;5.53;;;3.28;;
49678;SDS011;35570;48.218;16.326;2023-05-10T09:16:15;5.93;;;3.50;;
49678;SDS011;35570;48.218;16.326;2023-05-10T09:18:41;4.53;;;2.40;;
49678;SDS011;35570;48.218;16.326;2023-05-10T09:21:06;5.13;;;3.10;;
49678;SDS011;35570;48.218;16.326;2023-05-10T09:23:33;4.70;;;2.00;;
49678;SDS011;35570;48.218;16.326;2023-05-10T09:29:04;3.50;;;2.22;;
49678;SDS011;35570;48.218;16.326;2023-05-10T09:31:47;3.70;;;2.53;;
49678;SDS011;35570;48.218;16.326;2023-05-10T09:34:20;4.05;;;2.40;;
49678;SDS011;35570;48.218;16.326;2023-05-10T09:36:56;3.40;;;1.70;;
49678;SDS011;35570;48.218;16.326;2023-05-10T09:42:05;8.73;;;2.83;;
49678;SDS011;35570;48.218;16.326;2023-05-10T09:44:32;6.00;;;2.70;;
49678;SDS011;35570;48.218;16.326;2023-05-10T09:46:59;4.90;;;1.70;;
49678;SDS011;35570;48.218;16.326;2023-05-10T09:49:26;3.65;;;2.10;;
49678;SDS011;35570;48.218;16.326;2023-05-10T09:52:01;4.28;;;1.52;;
49678;SDS011;35570;48.218;16.326;2023-05-10T09:54:28;4.13;;;1.60;;
49678;SDS011;35570;48.218;16.326;2023-05-10T09:56:54;3.08;;;1.52;;
49678;SDS011;35570;48.218;16.326;2023-05-10T09:59:20;2.95;;;2.05;;
49678;SDS011;35570;48.218;16.326;2023-05-10T10:01:49;1.77;;;1.35;;
49678;SDS011;35570;48.218;16.326;2023-05-10T10:04:16;4.25;;;1.52;;
49678;SDS011;35570;48.218;16.326;2023-05-10T10:06:42;5.72;;;1.77;;
49678;SDS011;35570;48.218;16.326;2023-05-10T10:09:08;1.90;;;1.63;;
49678;SDS011;35570;48.218;16.326;2023-05-10T10:11:35;5.07;;;1.40;;
49678;SDS011;35570;48.218;16.326;2023-05-10T10:14:01;5.38;;;1.13;;
49678;SDS011;35570;48.218;16.326;2023-05-10T10:16:30;4.03;;;1.10;;
49678;SDS011;35570;48.218;16.326;2023-05-10T10:18:57;2.13;;;1.40;;
49678;SDS011;35570;48.218;16.326;2023-05-10T10:21:23;3.15;;;1.50;;
49678;SDS011;35570;48.218;16.326;2023-05-10T10:23:49;2.80;;;1.20;;
49678;SDS011;35570;48.218;16.326;2023-05-10T10:26:17;2.00;;;1.10;;
49678;SDS011;35570;48.218;16.326;2023-05-10T10:31:47;1.90;;;1.10;;
49678;SDS011;35570;48.218;16.326;2023-05-10T10:34:30;3.35;;;0.88;;
49678;SDS011;35570;48.218;16.326;2023-05-10T10:36:56;1.83;;;1.00;;
49678;SDS011;35570;48.218;16.326;2023-05-10T10:39:23;1.90;;;1.00;;
49678;SDS011;35570;48.218;16.326;2023-05-10T10:41:53;1.40;;;0.95;;
49678;SDS011;35570;48.218;16.326;2023-05-10T10:52:24;2.10;;;1.10;;
49678;SDS011;35570;48.218;16.326;2023-05-10T11:00:20;2.30;;;1.10;;
49678;SDS011;35570;48.218;16.326;2023-05-10T11:02:57;2.13;;;0.88;;
49678;SDS011;35570;48.218;16.326;2023-05-10T11:05:40;3.30;;;1.30;;
49678;SDS011;35570;48.218;16.326;2023-05-10T11:10:50;2.17;;;1.00;;
49678;SDS011;35570;48.218;16.326;2023-05-10T11:13:31;1.52;;;0.98;;
49678;SDS011;35570;48.218;16.326;2023-05-10T11:18:36;1.98;;;1.25;;
49678;SDS011;35570;48.218;16.326;2023-05-10T11:21:02;2.53;;;1.08;;
49678;SDS011;35570;48.218;16.326;2023-05-10T11:23:47;3.40;;;1.10;;
49678;SDS011;35570;48.218;16.326;2023-05-10T11:26:30;3.30;;;1.40;;
49678;SDS011;35570;48.218;16.326;2023-05-10T11:29:00;3.38;;;1.00;;
49678;SDS011;35570;48.218;16.326;2023-05-10T11:31:27;1.48;;;0.90;;
49678;SDS011;35570;48.218;16.326;2023-05-10T11:33:54;2.10;;;1.23;;
49678;SDS011;35570;48.218;16.326;2023-05-10T11:36:25;1.67;;;1.00;;
49678;SDS011;35570;48.218;16.326;2023-05-10T11:38:51;5.63;;;1.10;;
49678;SDS011;35570;48.218;16.326;2023-05-10T11:41:18;3.83;;;1.20;;
49678;SDS011;35570;48.218;16.326;2023-05-10T11:43:46;3.30;;;1.20;;
49678;SDS011;35570;48.218;16.326;2023-05-10T11:46:14;3.53;;;1.15;;
49678;SDS011;35570;48.218;16.326;2023-05-10T11:48:42;4.20;;;1.25;;
49678;SDS011;35570;48.218;16.326;2023-05-10T11:51:09;1.70;;;1.00;;
49678;SDS011;35570;48.218;16.326;2023-05-10T11:53:36;2.03;;;0.90;;
49678;SDS011;35570;48.218;16.326;2023-05-10T11:56:06;1.83;;;0.88;;
49678;SDS011;35570;48.218;16.326;2023-05-10T11:58:35;2.42;;;1.08;;
49678;SDS011;35570;48.218;16.326;2023-05-10T12:01:03;1.20;;;0.90;;
49678;SDS011;35570;48.218;16.326;2023-05-10T12:03:30;1.45;;;0.90;;
49678;SDS011;35570;48.218;16.326;2023-05-10T12:05:57;1.45;;;0.90;;
49678;SDS011;35570;48.218;16.326;2023-05-10T12:08:23;1.33;;;1.02;;
49678;SDS011;35570;48.218;16.326;2023-05-10T12:10:51;1.58;;;0.90;;
49678;SDS011;35570;48.218;16.326;2023-05-10T12:13:18;1.38;;;0.80;;
49678;SDS011;35570;48.218;16.326;2023-05-10T12:15:45;3.35;;;0.82;;
49678;SDS011;35570;48.218;16.326;2023-05-10T12:18:11;1.30;;;0.73;;
49678;SDS011;35570;48.218;16.326;2023-05-10T12:20:38;4.30;;;1.00;;
49678;SDS011;35570;48.218;16.326;2023-05-10T12:23:04;1.30;;;1.00;;
49678;SDS011;35570;48.218;16.326;2023-05-10T12:25:33;3.10;;;0.80;;
49678;SDS011;35570;48.218;16.326;2023-05-10T12:28:02;2.97;;;1.50;;
49678;SDS011;35570;48.218;16.326;2023-05-10T12:30:33;3.08;;;1.00;;
49678;SDS011;35570;48.218;16.326;2023-05-10T12:33:18;1.73;;;1.08;;
49678;SDS011;35570;48.218;16.326;2023-05-10T12:41:17;5.97;;;1.10;;
49678;SDS011;35570;48.218;16.326;2023-05-10T12:43:42;4.50;;;0.82;;
49678;SDS011;35570;48.218;16.326;2023-05-10T12:46:08;3.42;;;1.10;;
49678;SDS011;35570;48.218;16.326;2023-05-10T12:48:35;2.58;;;0.70;;
49678;SDS011;35570;48.218;16.326;2023-05-10T12:51:01;2.25;;;0.90;;
49678;SDS011;35570;48.218;16.326;2023-05-10T12:53:27;2.15;;;0.80;;
49678;SDS011;35570;48.218;16.326;2023-05-10T12:55:53;2.70;;;1.20;;
49678;SDS011;35570;48.218;16.326;2023-05-10T12:58:19;2.20;;;0.88;;
49678;SDS011;35570;48.218;16.326;2023-05-10T13:00:45;2.28;;;0.95;;
49678;SDS011;35570;48.218;16.326;2023-05-10T13:03:11;4.05;;;0.82;;
49678;SDS011;35570;48.218;16.326;2023-05-10T13:05:37;2.38;;;0.90;;
49678;SDS011;35570;48.218;16.326;2023-05-10T13:08:03;3.55;;;1.05;;
49678;SDS011;35570;48.218;16.326;2023-05-10T13:10:29;5.03;;;1.02;;
49678;SDS011;35570;48.218;16.326;2023-05-10T13:12:55;3.58;;;1.50;;
49678;SDS011;35570;48.218;16.326;2023-05-10T13:15:22;2.22;;;1.38;;
49678;SDS011;35570;48.218;16.326;2023-05-10T13:17:48;3.75;;;1.50;;
49678;SDS011;35570;48.218;16.326;2023-05-10T13:20:14;3.30;;;1.40;;
49678;SDS011;35570;48.218;16.326;2023-05-10T13:22:40;2.53;;;1.10;;
49678;SDS011;35570;48.218;16.326;2023-05-10T13:25:08;2.67;;;1.10;;
49678;SDS011;35570;48.218;16.326;2023-05-10T13:27:33;3.05;;;1.30;;
49678;SDS011;35570;48.218;16.326;2023-05-10T13:29:59;2.15;;;0.98;;
49678;SDS011;35570;48.218;16.326;2023-05-10T13:32:25;4.85;;;1.30;;
49678;SDS011;35570;48.218;16.326;2023-05-10T13:34:51;3.25;;;1.30;;
49678;SDS011;35570;48.218;16.326;2023-05-10T13:37:17;3.00;;;1.10;;
49678;SDS011;35570;48.218;16.326;2023-05-10T13:39:42;2.92;;;1.30;;
49678;SDS011;35570;48.218;16.326;2023-05-10T13:42:08;3.13;;;1.10;;
49678;SDS011;35570;48.218;16.326;2023-05-10T13:44:34;4.18;;;1.48;;
49678;SDS011;35570;48.218;16.326;2023-05-10T13:47:00;3.63;;;1.15;;
49678;SDS011;35570;48.218;16.326;2023-05-10T13:49:26;2.97;;;1.15;;
49678;SDS011;35570;48.218;16.326;2023-05-10T13:51:52;4.78;;;1.15;;
49678;SDS011;35570;48.218;16.326;2023-05-10T13:54:17;4.43;;;1.10;;
49678;SDS011;35570;48.218;16.326;2023-05-10T13:56:44;1.95;;;0.98;;
49678;SDS011;35570;48.218;16.326;2023-05-10T13:59:12;2.17;;;1.00;;
49678;SDS011;35570;48.218;16.326;2023-05-10T14:01:39;2.72;;;1.10;;
49678;SDS011;35570;48.218;16.326;2023-05-10T14:04:10;2.35;;;0.93;;
49678;SDS011;35570;48.218;16.326;2023-05-10T14:06:36;2.25;;;1.25;;
49678;SDS011;35570;48.218;16.326;2023-05-10T14:09:02;4.22;;;1.23;;
49678;SDS011;35570;48.218;16.326;2023-05-10T14:11:28;1.90;;;1.05;;
49678;SDS011;35570;48.218;16.326;2023-05-10T14:13:54;1.63;;;1.00;;
49678;SDS011;35570;48.218;16.326;2023-05-10T14:16:19;3.90;;;1.05;;
49678;SDS011;35570;48.218;16.326;2023-05-10T14:18:45;4.50;;;1.25;;
49678;SDS011;35570;48.218;16.326;2023-05-10T14:21:11;4.35;;;1.30;;
49678;SDS011;35570;48.218;16.326;2023-05-10T14:23:37;1.50;;;0.95;;
49678;SDS011;35570;48.218;16.326;2023-05-10T14:26:03;3.40;;;1.10;;
49678;SDS011;35570;48.218;16.326;2023-05-10T14:28:29;4.15;;;1.13;;
49678;SDS011;35570;48.218;16.326;2023-05-10T14:30:54;7.05;;;1.00;;
49678;SDS011;35570;48.218;16.326;2023-05-10T14:33:20;1.73;;;0.90;;
49678;SDS011;35570;48.218;16.326;2023-05-10T14:35:46;1.60;;;0.90;;
49678;SDS011;35570;48.218;16.326;2023-05-10T14:38:12;4.35;;;1.00;;
49678;SDS011;35570;48.218;16.326;2023-05-10T14:40:39;1.80;;;1.08;;
49678;SDS011;35570;48.218;16.326;2023-05-10T14:43:05;3.22;;;0.68;;
49678;SDS011;35570;48.218;16.326;2023-05-10T14:45:30;1.60;;;0.80;;
49678;SDS011;35570;48.218;16.326;2023-05-10T14:47:56;4.47;;;0.80;;
49678;SDS011;35570;48.218;16.326;2023-05-10T14:50:22;1.55;;;0.80;;
49678;SDS011;35570;48.218;16.326;2023-05-10T14:52:48;2.58;;;1.00;;
49678;SDS011;35570;48.218;16.326;2023-05-10T14:55:14;1.30;;;0.80;;
49678;SDS011;35570;48.218;16.326;2023-05-10T14:57:40;2.75;;;0.90;;
49678;SDS011;35570;48.218;16.326;2023-05-10T15:00:06;1.92;;;1.00;;
49678;SDS011;35570;48.218;16.326;2023-05-10T15:02:32;4.40;;;1.00;;
49678;SDS011;35570;48.218;16.326;2023-05-10T15:04:57;2.55;;;1.75;;
49678;SDS011;35570;48.218;16.326;2023-05-10T15:07:23;2.45;;;1.10;;
49678;SDS011;35570;48.218;16.326;2023-05-10T15:09:49;4.07;;;1.20;;
49678;SDS011;35570;48.218;16.326;2023-05-10T15:12:16;2.47;;;0.88;;
49678;SDS011;35570;48.218;16.326;2023-05-10T15:14:42;1.45;;;1.00;;
49678;SDS011;35570;48.218;16.326;2023-05-10T15:17:08;3.95;;;1.10;;
49678;SDS011;35570;48.218;16.326;2023-05-10T15:19:35;3.17;;;1.10;;
49678;SDS011;35570;48.218;16.326;2023-05-10T15:22:01;2.08;;;1.02;;